sensor_id;sensor_type;location;lat;lon;timestamp;P1;durP1;ratioP1;P2;durP2;ratioP2
1569;SDS011;778;50.120;8.698;2024-03-08T00:01:05;18.63;;;13.77;;
1569;SDS011;778;50.120;8.698;2024-03-08T00:03:34;18.93;;;14.40;;
1569;SDS011;778;50.120;8.698;2024-03-08T00:06:04;19.27;;;14.70;;
1569;SDS011;778;50.120;8.698;2024-03-08T00:08:34;16.93;;;14.60;;
1569;SDS011;778;50.120;8.698;2024-03-08T00:11:02;19.80;;;15.20;;
1569;SDS011;778;50.120;8.698;2024-03-08T00:13:31;17.20;;;14.20;;
1569;SDS011;778;50.120;8.698;2024-03-08T00:16:00;18.97;;;15.17;;
1569;SDS011;778;50.120;8.698;2024-03-08T00:18:29;20.03;;;15.40;;
1569;SDS011;778;50.120;8.698;2024-03-08T00:20:59;19.30;;;14.47;;
1569;SDS011;778;50.120;8.698;2024-03-08T00:23:28;20.30;;;14.23;;
1569;SDS011;778;50.120;8.698;2024-03-08T00:25:58;22.03;;;14.70;;
1569;SDS011;778;50.120;8.698;2024-03-08T00:28:27;19.90;;;14.80;;
1569;SDS011;778;50.120;8.698;2024-03-08T00:30:56;20.20;;;14.40;;
1569;SDS011;778;50.120;8.698;2024-03-08T00:33:24;19.90;;;15.80;;
1569;SDS011;778;50.120;8.698;2024-03-08T00:35:54;19.47;;;15.27;;
1569;SDS011;778;50.120;8.698;2024-03-08T00:38:25;19.30;;;14.60;;
1569;SDS011;778;50.120;8.698;2024-03-08T00:40:54;22.13;;;16.00;;
1569;SDS011;778;50.120;8.698;2024-03-08T00:43:23;19.47;;;14.27;;
1569;SDS011;778;50.120;8.698;2024-03-08T00:45:52;17.37;;;13.53;;
1569;SDS011;778;50.120;8.698;2024-03-08T00:48:21;22.13;;;14.43;;
1569;SDS011;778;50.120;8.698;2024-03-08T00:50:50;21.57;;;14.87;;
1569;SDS011;778;50.120;8.698;2024-03-08T00:53:19;18.10;;;14.20;;
1569;SDS011;778;50.120;8.698;2024-03-08T00:55:49;19.07;;;14.30;;
1569;SDS011;778;50.120;8.698;2024-03-08T00:58:18;17.40;;;13.90;;
1569;SDS011;778;50.120;8.698;2024-03-08T01:00:48;24.60;;;16.63;;
1569;SDS011;778;50.120;8.698;2024-03-08T01:03:17;21.83;;;15.30;;
1569;SDS011;778;50.120;8.698;2024-03-08T01:05:45;19.93;;;14.50;;
1569;SDS011;778;50.120;8.698;2024-03-08T01:08:14;18.67;;;14.50;;
1569;SDS011;778;50.120;8.698;2024-03-08T01:10:43;21.83;;;16.23;;
1569;SDS011;778;50.120;8.698;2024-03-08T01:13:13;25.20;;;16.83;;
1569;SDS011;778;50.120;8.698;2024-03-08T01:15:42;21.40;;;15.80;;
1569;SDS011;778;50.120;8.698;2024-03-08T01:18:11;22.40;;;16.37;;
1569;SDS011;778;50.120;8.698;2024-03-08T01:20:40;20.43;;;14.87;;
1569;SDS011;778;50.120;8.698;2024-03-08T01:23:08;20.30;;;14.70;;
1569;SDS011;778;50.120;8.698;2024-03-08T01:25:37;26.73;;;18.23;;
1569;SDS011;778;50.120;8.698;2024-03-08T01:28:07;23.30;;;16.67;;
1569;SDS011;778;50.120;8.698;2024-03-08T01:30:37;20.37;;;15.70;;
1569;SDS011;778;50.120;8.698;2024-03-08T01:33:06;23.33;;;16.00;;
1569;SDS011;778;50.120;8.698;2024-03-08T01:35:35;19.93;;;15.30;;
1569;SDS011;778;50.120;8.698;2024-03-08T01:38:07;20.90;;;14.67;;
1569;SDS011;778;50.120;8.698;2024-03-08T01:40:36;31.23;;;16.37;;
1569;SDS011;778;50.120;8.698;2024-03-08T01:43:19;21.30;;;15.37;;
1569;SDS011;778;50.120;8.698;2024-03-08T01:45:50;22.60;;;16.90;;
1569;SDS011;778;50.120;8.698;2024-03-08T01:48:19;19.10;;;15.33;;
1569;SDS011;778;50.120;8.698;2024-03-08T01:50:50;19.47;;;14.70;;
1569;SDS011;778;50.120;8.698;2024-03-08T01:53:21;24.30;;;16.47;;
1569;SDS011;778;50.120;8.698;2024-03-08T01:55:50;22.03;;;16.37;;
1569;SDS011;778;50.120;8.698;2024-03-08T01:58:22;22.60;;;15.37;;
1569;SDS011;778;50.120;8.698;2024-03-08T02:00:52;22.57;;;15.83;;
1569;SDS011;778;50.120;8.698;2024-03-08T02:03:21;22.37;;;14.47;;
1569;SDS011;778;50.120;8.698;2024-03-08T02:05:50;21.77;;;15.60;;
1569;SDS011;778;50.120;8.698;2024-03-08T02:08:19;22.00;;;15.20;;
1569;SDS011;778;50.120;8.698;2024-03-08T02:10:49;21.83;;;15.50;;
1569;SDS011;778;50.120;8.698;2024-03-08T02:13:18;22.33;;;16.17;;
1569;SDS011;778;50.120;8.698;2024-03-08T02:15:55;23.43;;;15.50;;
1569;SDS011;778;50.120;8.698;2024-03-08T02:18:25;25.93;;;16.60;;
1569;SDS011;778;50.120;8.698;2024-03-08T02:20:57;22.33;;;16.77;;
1569;SDS011;778;50.120;8.698;2024-03-08T02:23:26;22.97;;;16.27;;
1569;SDS011;778;50.120;8.698;2024-03-08T02:25:56;24.80;;;18.37;;
1569;SDS011;778;50.120;8.698;2024-03-08T02:28:25;23.33;;;17.00;;
1569;SDS011;778;50.120;8.698;2024-03-08T02:30:54;22.90;;;16.70;;
1569;SDS011;778;50.120;8.698;2024-03-08T02:33:25;24.53;;;16.67;;
1569;SDS011;778;50.120;8.698;2024-03-08T02:35:56;24.00;;;16.77;;
1569;SDS011;778;50.120;8.698;2024-03-08T02:38:25;20.27;;;16.07;;
1569;SDS011;778;50.120;8.698;2024-03-08T02:40:54;22.87;;;17.13;;
1569;SDS011;778;50.120;8.698;2024-03-08T02:43:23;25.20;;;16.57;;
1569;SDS011;778;50.120;8.698;2024-03-08T02:45:52;26.23;;;17.90;;
1569;SDS011;778;50.120;8.698;2024-03-08T02:48:21;22.90;;;16.70;;
1569;SDS011;778;50.120;8.698;2024-03-08T02:50:50;28.17;;;16.90;;
1569;SDS011;778;50.120;8.698;2024-03-08T02:53:21;25.07;;;16.30;;
1569;SDS011;778;50.120;8.698;2024-03-08T02:55:51;26.40;;;18.63;;
1569;SDS011;778;50.120;8.698;2024-03-08T02:58:19;23.90;;;17.97;;
1569;SDS011;778;50.120;8.698;2024-03-08T03:00:48;22.67;;;16.40;;
1569;SDS011;778;50.120;8.698;2024-03-08T03:03:17;24.63;;;17.43;;
1569;SDS011;778;50.120;8.698;2024-03-08T03:05:46;22.97;;;17.50;;
1569;SDS011;778;50.120;8.698;2024-03-08T03:08:16;24.63;;;19.83;;
1569;SDS011;778;50.120;8.698;2024-03-08T03:10:47;23.77;;;16.67;;
1569;SDS011;778;50.120;8.698;2024-03-08T03:13:16;24.63;;;17.80;;
1569;SDS011;778;50.120;8.698;2024-03-08T03:15:46;28.47;;;18.90;;
1569;SDS011;778;50.120;8.698;2024-03-08T03:18:14;22.27;;;17.00;;
1569;SDS011;778;50.120;8.698;2024-03-08T03:20:44;23.80;;;17.50;;
1569;SDS011;778;50.120;8.698;2024-03-08T03:23:13;28.70;;;17.67;;
1569;SDS011;778;50.120;8.698;2024-03-08T03:25:48;23.70;;;17.80;;
1569;SDS011;778;50.120;8.698;2024-03-08T03:28:18;26.53;;;17.27;;
1569;SDS011;778;50.120;8.698;2024-03-08T03:30:50;29.00;;;18.00;;
1569;SDS011;778;50.120;8.698;2024-03-08T03:33:19;26.17;;;17.63;;
1569;SDS011;778;50.120;8.698;2024-03-08T03:35:49;26.60;;;18.70;;
1569;SDS011;778;50.120;8.698;2024-03-08T03:38:18;25.67;;;18.00;;
1569;SDS011;778;50.120;8.698;2024-03-08T03:40:51;26.93;;;17.30;;
1569;SDS011;778;50.120;8.698;2024-03-08T03:43:22;26.37;;;16.43;;
1569;SDS011;778;50.120;8.698;2024-03-08T03:45:52;25.37;;;17.83;;
1569;SDS011;778;50.120;8.698;2024-03-08T03:48:22;31.70;;;18.07;;
1569;SDS011;778;50.120;8.698;2024-03-08T03:50:51;23.10;;;17.40;;
1569;SDS011;778;50.120;8.698;2024-03-08T03:53:19;24.83;;;16.60;;
1569;SDS011;778;50.120;8.698;2024-03-08T03:55:48;23.90;;;18.13;;
1569;SDS011;778;50.120;8.698;2024-03-08T03:58:18;28.07;;;18.67;;
1569;SDS011;778;50.120;8.698;2024-03-08T04:00:49;24.93;;;18.77;;
1569;SDS011;778;50.120;8.698;2024-03-08T04:03:18;27.63;;;18.40;;
1569;SDS011;778;50.120;8.698;2024-03-08T04:05:46;27.50;;;19.13;;
1569;SDS011;778;50.120;8.698;2024-03-08T04:08:15;25.47;;;18.63;;
1569;SDS011;778;50.120;8.698;2024-03-08T04:10:44;27.30;;;19.50;;
1569;SDS011;778;50.120;8.698;2024-03-08T04:13:14;26.77;;;17.97;;
1569;SDS011;778;50.120;8.698;2024-03-08T04:15:43;27.47;;;19.73;;
1569;SDS011;778;50.120;8.698;2024-03-08T04:18:15;27.50;;;19.53;;
1569;SDS011;778;50.120;8.698;2024-03-08T04:20:45;28.63;;;19.17;;
1569;SDS011;778;50.120;8.698;2024-03-08T04:23:14;30.30;;;19.67;;
1569;SDS011;778;50.120;8.698;2024-03-08T04:25:44;25.33;;;18.10;;
1569;SDS011;778;50.120;8.698;2024-03-08T04:28:14;31.17;;;21.73;;
1569;SDS011;778;50.120;8.698;2024-03-08T04:30:43;25.73;;;18.30;;
1569;SDS011;778;50.120;8.698;2024-03-08T04:33:13;27.93;;;18.73;;
1569;SDS011;778;50.120;8.698;2024-03-08T04:35:44;26.80;;;18.40;;
1569;SDS011;778;50.120;8.698;2024-03-08T04:38:13;26.43;;;18.63;;
1569;SDS011;778;50.120;8.698;2024-03-08T04:40:42;28.27;;;20.00;;
1569;SDS011;778;50.120;8.698;2024-03-08T04:43:11;27.03;;;18.77;;
1569;SDS011;778;50.120;8.698;2024-03-08T04:45:42;28.10;;;18.43;;
1569;SDS011;778;50.120;8.698;2024-03-08T04:48:11;28.23;;;19.53;;
1569;SDS011;778;50.120;8.698;2024-03-08T04:50:40;29.87;;;20.47;;
1569;SDS011;778;50.120;8.698;2024-03-08T04:53:09;27.67;;;19.60;;
1569;SDS011;778;50.120;8.698;2024-03-08T04:55:37;25.23;;;19.20;;
1569;SDS011;778;50.120;8.698;2024-03-08T04:58:06;30.77;;;20.80;;
1569;SDS011;778;50.120;8.698;2024-03-08T05:00:35;31.13;;;20.37;;
1569;SDS011;778;50.120;8.698;2024-03-08T05:03:05;27.87;;;18.73;;
1569;SDS011;778;50.120;8.698;2024-03-08T05:05:34;28.37;;;19.37;;
1569;SDS011;778;50.120;8.698;2024-03-08T05:08:03;28.93;;;19.20;;
1569;SDS011;778;50.120;8.698;2024-03-08T05:10:32;32.20;;;20.23;;
1569;SDS011;778;50.120;8.698;2024-03-08T05:13:01;30.10;;;22.20;;
1569;SDS011;778;50.120;8.698;2024-03-08T05:15:30;32.40;;;21.23;;
1569;SDS011;778;50.120;8.698;2024-03-08T05:18:01;26.93;;;19.07;;
1569;SDS011;778;50.120;8.698;2024-03-08T05:20:31;28.10;;;19.47;;
1569;SDS011;778;50.120;8.698;2024-03-08T05:23:01;28.27;;;20.80;;
1569;SDS011;778;50.120;8.698;2024-03-08T05:25:32;28.10;;;19.70;;
1569;SDS011;778;50.120;8.698;2024-03-08T05:28:01;29.80;;;20.60;;
1569;SDS011;778;50.120;8.698;2024-03-08T05:30:30;30.70;;;21.00;;
1569;SDS011;778;50.120;8.698;2024-03-08T05:32:59;32.27;;;20.73;;
1569;SDS011;778;50.120;8.698;2024-03-08T05:35:28;30.37;;;20.30;;
1569;SDS011;778;50.120;8.698;2024-03-08T05:38:00;27.60;;;19.37;;
1569;SDS011;778;50.120;8.698;2024-03-08T05:40:29;27.83;;;20.87;;
1569;SDS011;778;50.120;8.698;2024-03-08T05:42:58;28.80;;;21.60;;
1569;SDS011;778;50.120;8.698;2024-03-08T05:45:27;28.07;;;20.07;;
1569;SDS011;778;50.120;8.698;2024-03-08T05:47:56;31.10;;;20.37;;
1569;SDS011;778;50.120;8.698;2024-03-08T05:50:25;30.23;;;21.20;;
1569;SDS011;778;50.120;8.698;2024-03-08T05:52:54;29.90;;;21.50;;
1569;SDS011;778;50.120;8.698;2024-03-08T05:55:25;28.53;;;20.10;;
1569;SDS011;778;50.120;8.698;2024-03-08T05:57:53;30.17;;;21.60;;
1569;SDS011;778;50.120;8.698;2024-03-08T06:00:23;29.40;;;21.53;;
1569;SDS011;778;50.120;8.698;2024-03-08T06:02:52;30.67;;;22.03;;
1569;SDS011;778;50.120;8.698;2024-03-08T06:05:22;29.73;;;20.77;;
1569;SDS011;778;50.120;8.698;2024-03-08T06:07:51;29.20;;;20.40;;
1569;SDS011;778;50.120;8.698;2024-03-08T06:10:34;30.93;;;21.20;;
1569;SDS011;778;50.120;8.698;2024-03-08T06:13:02;31.30;;;19.93;;
1569;SDS011;778;50.120;8.698;2024-03-08T06:15:31;33.70;;;21.00;;
1569;SDS011;778;50.120;8.698;2024-03-08T06:18:01;35.97;;;20.40;;
1569;SDS011;778;50.120;8.698;2024-03-08T06:20:32;30.47;;;20.30;;
1569;SDS011;778;50.120;8.698;2024-03-08T06:23:01;29.93;;;19.03;;
1569;SDS011;778;50.120;8.698;2024-03-08T06:25:30;31.63;;;20.30;;
1569;SDS011;778;50.120;8.698;2024-03-08T06:28:00;31.03;;;20.40;;
1569;SDS011;778;50.120;8.698;2024-03-08T06:30:29;29.60;;;21.40;;
1569;SDS011;778;50.120;8.698;2024-03-08T06:32:58;33.40;;;21.70;;
1569;SDS011;778;50.120;8.698;2024-03-08T06:35:27;34.37;;;21.30;;
1569;SDS011;778;50.120;8.698;2024-03-08T06:37:58;34.03;;;21.03;;
1569;SDS011;778;50.120;8.698;2024-03-08T06:40:27;32.33;;;19.70;;
1569;SDS011;778;50.120;8.698;2024-03-08T06:42:55;32.47;;;20.37;;
1569;SDS011;778;50.120;8.698;2024-03-08T06:45:26;26.30;;;18.87;;
1569;SDS011;778;50.120;8.698;2024-03-08T06:47:55;26.97;;;20.27;;
1569;SDS011;778;50.120;8.698;2024-03-08T06:50:23;33.43;;;22.50;;
1569;SDS011;778;50.120;8.698;2024-03-08T06:52:52;28.70;;;20.27;;
1569;SDS011;778;50.120;8.698;2024-03-08T06:55:21;30.37;;;20.07;;
1569;SDS011;778;50.120;8.698;2024-03-08T06:57:50;35.77;;;20.13;;
1569;SDS011;778;50.120;8.698;2024-03-08T07:00:19;29.80;;;20.03;;
1569;SDS011;778;50.120;8.698;2024-03-08T07:02:54;30.90;;;20.40;;
1569;SDS011;778;50.120;8.698;2024-03-08T07:05:27;26.00;;;18.63;;
1569;SDS011;778;50.120;8.698;2024-03-08T07:07:57;26.90;;;20.20;;
1569;SDS011;778;50.120;8.698;2024-03-08T07:10:26;34.17;;;21.40;;
1569;SDS011;778;50.120;8.698;2024-03-08T07:12:55;28.87;;;19.40;;
1569;SDS011;778;50.120;8.698;2024-03-08T07:15:24;32.87;;;21.07;;
1569;SDS011;778;50.120;8.698;2024-03-08T07:17:55;25.40;;;19.17;;
1569;SDS011;778;50.120;8.698;2024-03-08T07:20:26;30.47;;;20.33;;
1569;SDS011;778;50.120;8.698;2024-03-08T07:22:55;28.93;;;20.57;;
1569;SDS011;778;50.120;8.698;2024-03-08T07:25:24;25.83;;;18.33;;
1569;SDS011;778;50.120;8.698;2024-03-08T07:27:56;29.17;;;21.20;;
1569;SDS011;778;50.120;8.698;2024-03-08T07:30:25;25.77;;;18.77;;
1569;SDS011;778;50.120;8.698;2024-03-08T07:33:13;35.77;;;23.00;;
1569;SDS011;778;50.120;8.698;2024-03-08T07:35:42;25.77;;;18.37;;
1569;SDS011;778;50.120;8.698;2024-03-08T07:38:12;23.60;;;17.80;;
1569;SDS011;778;50.120;8.698;2024-03-08T07:40:41;25.90;;;19.73;;
1569;SDS011;778;50.120;8.698;2024-03-08T07:43:12;25.20;;;17.93;;
1569;SDS011;778;50.120;8.698;2024-03-08T07:45:40;26.83;;;19.90;;
1569;SDS011;778;50.120;8.698;2024-03-08T07:48:09;27.90;;;20.87;;
1569;SDS011;778;50.120;8.698;2024-03-08T07:50:41;28.93;;;20.00;;
1569;SDS011;778;50.120;8.698;2024-03-08T07:53:10;28.20;;;20.60;;
1569;SDS011;778;50.120;8.698;2024-03-08T07:55:38;26.43;;;20.13;;
1569;SDS011;778;50.120;8.698;2024-03-08T07:58:08;29.80;;;20.80;;
1569;SDS011;778;50.120;8.698;2024-03-08T08:00:38;30.43;;;20.70;;
1569;SDS011;778;50.120;8.698;2024-03-08T08:03:09;27.87;;;19.37;;
1569;SDS011;778;50.120;8.698;2024-03-08T08:05:40;24.60;;;18.93;;
1569;SDS011;778;50.120;8.698;2024-03-08T08:08:09;29.03;;;20.77;;
1569;SDS011;778;50.120;8.698;2024-03-08T08:10:38;30.27;;;20.67;;
1569;SDS011;778;50.120;8.698;2024-03-08T08:13:07;25.83;;;19.27;;
1569;SDS011;778;50.120;8.698;2024-03-08T08:15:36;29.40;;;19.80;;
1569;SDS011;778;50.120;8.698;2024-03-08T08:18:05;24.20;;;18.40;;
1569;SDS011;778;50.120;8.698;2024-03-08T08:20:36;28.97;;;19.20;;
1569;SDS011;778;50.120;8.698;2024-03-08T08:23:06;25.27;;;18.50;;
1569;SDS011;778;50.120;8.698;2024-03-08T08:25:36;30.47;;;21.07;;
1569;SDS011;778;50.120;8.698;2024-03-08T08:28:05;26.53;;;18.30;;
1569;SDS011;778;50.120;8.698;2024-03-08T08:30:34;25.80;;;19.20;;
1569;SDS011;778;50.120;8.698;2024-03-08T08:33:04;27.43;;;17.97;;
1569;SDS011;778;50.120;8.698;2024-03-08T08:35:35;23.50;;;17.63;;
1569;SDS011;778;50.120;8.698;2024-03-08T08:38:03;25.20;;;20.47;;
1569;SDS011;778;50.120;8.698;2024-03-08T08:40:35;25.40;;;17.97;;
1569;SDS011;778;50.120;8.698;2024-03-08T08:43:04;26.33;;;18.10;;
1569;SDS011;778;50.120;8.698;2024-03-08T08:45:36;24.30;;;17.20;;
1569;SDS011;778;50.120;8.698;2024-03-08T08:48:05;26.00;;;17.83;;
1569;SDS011;778;50.120;8.698;2024-03-08T08:50:34;22.93;;;18.73;;
1569;SDS011;778;50.120;8.698;2024-03-08T08:53:03;23.30;;;19.60;;
1569;SDS011;778;50.120;8.698;2024-03-08T08:55:34;23.13;;;17.27;;
1569;SDS011;778;50.120;8.698;2024-03-08T08:58:03;22.97;;;18.60;;
1569;SDS011;778;50.120;8.698;2024-03-08T09:00:33;24.57;;;18.20;;
1569;SDS011;778;50.120;8.698;2024-03-08T09:03:02;22.47;;;18.20;;
1569;SDS011;778;50.120;8.698;2024-03-08T09:05:33;20.00;;;17.07;;
1569;SDS011;778;50.120;8.698;2024-03-08T09:08:05;21.90;;;17.23;;
1569;SDS011;778;50.120;8.698;2024-03-08T09:10:36;23.57;;;18.20;;
1569;SDS011;778;50.120;8.698;2024-03-08T09:13:06;20.60;;;18.40;;
1569;SDS011;778;50.120;8.698;2024-03-08T09:15:43;19.87;;;16.10;;
1569;SDS011;778;50.120;8.698;2024-03-08T09:18:12;18.63;;;15.33;;
1569;SDS011;778;50.120;8.698;2024-03-08T09:20:41;17.47;;;14.70;;
1569;SDS011;778;50.120;8.698;2024-03-08T09:23:10;20.90;;;16.67;;
1569;SDS011;778;50.120;8.698;2024-03-08T09:25:40;18.73;;;14.50;;
1569;SDS011;778;50.120;8.698;2024-03-08T09:28:11;18.97;;;16.07;;
1569;SDS011;778;50.120;8.698;2024-03-08T09:30:40;20.50;;;15.33;;
1569;SDS011;778;50.120;8.698;2024-03-08T09:33:22;18.67;;;14.17;;
1569;SDS011;778;50.120;8.698;2024-03-08T09:35:50;18.57;;;12.57;;
1569;SDS011;778;50.120;8.698;2024-03-08T09:38:20;27.37;;;16.23;;
1569;SDS011;778;50.120;8.698;2024-03-08T09:40:50;16.00;;;13.23;;
1569;SDS011;778;50.120;8.698;2024-03-08T09:43:19;16.13;;;13.33;;
1569;SDS011;778;50.120;8.698;2024-03-08T09:45:48;17.67;;;13.80;;
1569;SDS011;778;50.120;8.698;2024-03-08T09:48:17;19.67;;;15.57;;
1569;SDS011;778;50.120;8.698;2024-03-08T09:50:47;18.93;;;12.10;;
1569;SDS011;778;50.120;8.698;2024-03-08T09:53:15;17.40;;;14.57;;
1569;SDS011;778;50.120;8.698;2024-03-08T09:55:44;17.60;;;13.73;;
1569;SDS011;778;50.120;8.698;2024-03-08T09:58:17;16.20;;;13.33;;
1569;SDS011;778;50.120;8.698;2024-03-08T10:01:05;16.73;;;12.80;;
1569;SDS011;778;50.120;8.698;2024-03-08T10:03:34;17.40;;;14.70;;
1569;SDS011;778;50.120;8.698;2024-03-08T10:06:03;23.87;;;14.30;;
1569;SDS011;778;50.120;8.698;2024-03-08T10:08:32;18.37;;;14.57;;
1569;SDS011;778;50.120;8.698;2024-03-08T10:11:01;16.93;;;15.10;;
1569;SDS011;778;50.120;8.698;2024-03-08T10:13:31;18.63;;;14.30;;
1569;SDS011;778;50.120;8.698;2024-03-08T10:16:00;17.67;;;13.90;;
1569;SDS011;778;50.120;8.698;2024-03-08T10:18:29;17.67;;;13.37;;
1569;SDS011;778;50.120;8.698;2024-03-08T10:21:02;19.17;;;14.63;;
1569;SDS011;778;50.120;8.698;2024-03-08T10:23:31;20.23;;;13.63;;
1569;SDS011;778;50.120;8.698;2024-03-08T10:26:10;17.27;;;15.30;;
1569;SDS011;778;50.120;8.698;2024-03-08T10:28:43;17.37;;;13.27;;
1569;SDS011;778;50.120;8.698;2024-03-08T10:31:14;16.63;;;13.33;;
1569;SDS011;778;50.120;8.698;2024-03-08T10:33:45;16.77;;;13.53;;
1569;SDS011;778;50.120;8.698;2024-03-08T10:36:14;16.90;;;14.50;;
1569;SDS011;778;50.120;8.698;2024-03-08T10:38:43;17.30;;;14.67;;
1569;SDS011;778;50.120;8.698;2024-03-08T10:41:14;17.20;;;14.10;;
1569;SDS011;778;50.120;8.698;2024-03-08T10:43:52;13.90;;;12.50;;
1569;SDS011;778;50.120;8.698;2024-03-08T10:46:36;17.27;;;12.97;;
1569;SDS011;778;50.120;8.698;2024-03-08T10:49:12;17.60;;;15.70;;
1569;SDS011;778;50.120;8.698;2024-03-08T10:51:44;16.80;;;14.47;;
1569;SDS011;778;50.120;8.698;2024-03-08T10:54:14;16.17;;;13.30;;
1569;SDS011;778;50.120;8.698;2024-03-08T10:56:44;18.77;;;15.27;;
1569;SDS011;778;50.120;8.698;2024-03-08T10:59:14;16.80;;;13.67;;
1569;SDS011;778;50.120;8.698;2024-03-08T11:01:43;16.90;;;14.37;;
1569;SDS011;778;50.120;8.698;2024-03-08T11:04:12;16.70;;;14.30;;
1569;SDS011;778;50.120;8.698;2024-03-08T11:06:42;16.90;;;14.80;;
1569;SDS011;778;50.120;8.698;2024-03-08T11:09:27;23.70;;;14.00;;
1569;SDS011;778;50.120;8.698;2024-03-08T11:14:48;14.40;;;11.43;;
1569;SDS011;778;50.120;8.698;2024-03-08T11:17:20;17.73;;;13.20;;
1569;SDS011;778;50.120;8.698;2024-03-08T11:19:49;15.90;;;14.30;;
1569;SDS011;778;50.120;8.698;2024-03-08T11:22:23;12.27;;;9.37;;
1569;SDS011;778;50.120;8.698;2024-03-08T11:24:57;15.13;;;12.93;;
1569;SDS011;778;50.120;8.698;2024-03-08T11:27:30;16.50;;;12.87;;
1569;SDS011;778;50.120;8.698;2024-03-08T11:30:01;14.20;;;11.40;;
1569;SDS011;778;50.120;8.698;2024-03-08T11:32:44;13.43;;;12.03;;
1569;SDS011;778;50.120;8.698;2024-03-08T11:35:17;15.37;;;12.80;;
1569;SDS011;778;50.120;8.698;2024-03-08T11:37:47;14.67;;;12.57;;
1569;SDS011;778;50.120;8.698;2024-03-08T11:40:17;15.40;;;11.87;;
1569;SDS011;778;50.120;8.698;2024-03-08T11:42:48;17.53;;;13.10;;
1569;SDS011;778;50.120;8.698;2024-03-08T11:45:19;17.33;;;12.17;;
1569;SDS011;778;50.120;8.698;2024-03-08T11:47:48;15.27;;;11.97;;
1569;SDS011;778;50.120;8.698;2024-03-08T11:50:21;14.47;;;12.20;;
1569;SDS011;778;50.120;8.698;2024-03-08T11:52:50;17.03;;;13.70;;
1569;SDS011;778;50.120;8.698;2024-03-08T11:55:18;15.53;;;13.03;;
1569;SDS011;778;50.120;8.698;2024-03-08T11:57:47;15.83;;;12.93;;
1569;SDS011;778;50.120;8.698;2024-03-08T12:00:17;16.80;;;13.87;;
1569;SDS011;778;50.120;8.698;2024-03-08T12:03:00;16.13;;;13.13;;
1569;SDS011;778;50.120;8.698;2024-03-08T12:05:30;14.50;;;13.00;;
1569;SDS011;778;50.120;8.698;2024-03-08T12:08:00;14.77;;;12.97;;
1569;SDS011;778;50.120;8.698;2024-03-08T12:10:29;14.83;;;11.83;;
1569;SDS011;778;50.120;8.698;2024-03-08T12:12:58;15.77;;;13.77;;
1569;SDS011;778;50.120;8.698;2024-03-08T12:15:29;15.27;;;13.03;;
1569;SDS011;778;50.120;8.698;2024-03-08T12:18:00;15.57;;;13.23;;
1569;SDS011;778;50.120;8.698;2024-03-08T12:20:31;15.60;;;13.93;;
1569;SDS011;778;50.120;8.698;2024-03-08T12:23:00;17.00;;;13.20;;
1569;SDS011;778;50.120;8.698;2024-03-08T12:25:30;15.87;;;13.23;;
1569;SDS011;778;50.120;8.698;2024-03-08T12:28:07;15.97;;;13.07;;
1569;SDS011;778;50.120;8.698;2024-03-08T12:30:45;15.50;;;13.40;;
1569;SDS011;778;50.120;8.698;2024-03-08T12:33:15;16.10;;;13.07;;
1569;SDS011;778;50.120;8.698;2024-03-08T12:35:50;15.87;;;13.27;;
1569;SDS011;778;50.120;8.698;2024-03-08T12:38:27;15.80;;;13.57;;
1569;SDS011;778;50.120;8.698;2024-03-08T12:40:58;16.13;;;14.20;;
1569;SDS011;778;50.120;8.698;2024-03-08T12:43:28;18.90;;;13.57;;
1569;SDS011;778;50.120;8.698;2024-03-08T12:46:00;17.70;;;13.00;;
1569;SDS011;778;50.120;8.698;2024-03-08T12:48:34;15.23;;;13.40;;
1569;SDS011;778;50.120;8.698;2024-03-08T12:51:03;18.10;;;14.80;;
1569;SDS011;778;50.120;8.698;2024-03-08T12:53:33;17.00;;;13.53;;
1569;SDS011;778;50.120;8.698;2024-03-08T12:56:02;15.50;;;12.77;;
1569;SDS011;778;50.120;8.698;2024-03-08T12:58:34;17.10;;;12.87;;
1569;SDS011;778;50.120;8.698;2024-03-08T13:01:06;20.30;;;14.20;;
1569;SDS011;778;50.120;8.698;2024-03-08T13:03:35;14.97;;;11.60;;
1569;SDS011;778;50.120;8.698;2024-03-08T13:06:04;16.83;;;13.40;;
1569;SDS011;778;50.120;8.698;2024-03-08T13:08:34;21.60;;;14.23;;
1569;SDS011;778;50.120;8.698;2024-03-08T13:11:05;17.10;;;14.30;;
1569;SDS011;778;50.120;8.698;2024-03-08T13:13:36;17.70;;;13.73;;
1569;SDS011;778;50.120;8.698;2024-03-08T13:16:08;21.10;;;14.43;;
1569;SDS011;778;50.120;8.698;2024-03-08T13:18:39;17.73;;;14.07;;
1569;SDS011;778;50.120;8.698;2024-03-08T13:21:09;13.90;;;11.90;;
1569;SDS011;778;50.120;8.698;2024-03-08T13:23:40;16.03;;;12.60;;
1569;SDS011;778;50.120;8.698;2024-03-08T13:26:12;13.60;;;11.50;;
1569;SDS011;778;50.120;8.698;2024-03-08T13:28:42;15.33;;;12.60;;
1569;SDS011;778;50.120;8.698;2024-03-08T13:31:13;17.10;;;13.70;;
1569;SDS011;778;50.120;8.698;2024-03-08T13:33:42;15.33;;;12.47;;
1569;SDS011;778;50.120;8.698;2024-03-08T13:36:13;15.80;;;11.87;;
1569;SDS011;778;50.120;8.698;2024-03-08T13:38:43;12.97;;;11.17;;
1569;SDS011;778;50.120;8.698;2024-03-08T13:41:14;15.57;;;12.73;;
1569;SDS011;778;50.120;8.698;2024-03-08T13:43:45;19.50;;;13.30;;
1569;SDS011;778;50.120;8.698;2024-03-08T13:46:17;16.40;;;12.57;;
1569;SDS011;778;50.120;8.698;2024-03-08T13:48:46;17.10;;;14.30;;
1569;SDS011;778;50.120;8.698;2024-03-08T13:51:17;19.47;;;14.80;;
1569;SDS011;778;50.120;8.698;2024-03-08T13:53:46;16.33;;;12.80;;
1569;SDS011;778;50.120;8.698;2024-03-08T13:56:15;16.10;;;11.43;;
1569;SDS011;778;50.120;8.698;2024-03-08T13:58:44;17.93;;;13.80;;
1569;SDS011;778;50.120;8.698;2024-03-08T14:01:14;17.23;;;14.10;;
1569;SDS011;778;50.120;8.698;2024-03-08T14:03:45;16.07;;;12.00;;
1569;SDS011;778;50.120;8.698;2024-03-08T14:06:13;15.27;;;12.43;;
1569;SDS011;778;50.120;8.698;2024-03-08T14:08:49;19.30;;;13.30;;
1569;SDS011;778;50.120;8.698;2024-03-08T14:11:18;14.87;;;12.07;;
1569;SDS011;778;50.120;8.698;2024-03-08T14:13:47;14.67;;;12.43;;
1569;SDS011;778;50.120;8.698;2024-03-08T14:16:16;14.90;;;11.73;;
1569;SDS011;778;50.120;8.698;2024-03-08T14:18:46;14.77;;;13.17;;
1569;SDS011;778;50.120;8.698;2024-03-08T14:21:15;16.87;;;12.73;;
1569;SDS011;778;50.120;8.698;2024-03-08T14:23:44;16.80;;;13.00;;
1569;SDS011;778;50.120;8.698;2024-03-08T14:26:15;20.47;;;13.07;;
1569;SDS011;778;50.120;8.698;2024-03-08T14:28:44;16.60;;;12.60;;
1569;SDS011;778;50.120;8.698;2024-03-08T14:31:13;16.70;;;12.87;;
1569;SDS011;778;50.120;8.698;2024-03-08T14:33:46;16.00;;;12.10;;
1569;SDS011;778;50.120;8.698;2024-03-08T14:36:16;16.60;;;13.17;;
1569;SDS011;778;50.120;8.698;2024-03-08T14:38:51;16.60;;;13.83;;
1569;SDS011;778;50.120;8.698;2024-03-08T14:41:20;17.63;;;13.73;;
1569;SDS011;778;50.120;8.698;2024-03-08T14:43:49;15.50;;;12.57;;
1569;SDS011;778;50.120;8.698;2024-03-08T14:46:19;16.40;;;11.77;;
1569;SDS011;778;50.120;8.698;2024-03-08T14:48:51;14.30;;;12.00;;
1569;SDS011;778;50.120;8.698;2024-03-08T14:51:20;14.33;;;12.70;;
1569;SDS011;778;50.120;8.698;2024-03-08T14:53:53;15.63;;;13.13;;
1569;SDS011;778;50.120;8.698;2024-03-08T14:56:22;16.57;;;13.37;;
1569;SDS011;778;50.120;8.698;2024-03-08T14:59:04;14.63;;;12.07;;
1569;SDS011;778;50.120;8.698;2024-03-08T15:01:34;15.30;;;11.10;;
1569;SDS011;778;50.120;8.698;2024-03-08T15:07:42;15.80;;;13.50;;
1569;SDS011;778;50.120;8.698;2024-03-08T15:13:11;19.90;;;12.80;;
1569;SDS011;778;50.120;8.698;2024-03-08T15:15:55;18.43;;;12.63;;
1569;SDS011;778;50.120;8.698;2024-03-08T15:18:46;18.57;;;12.87;;
1569;SDS011;778;50.120;8.698;2024-03-08T15:21:33;17.77;;;12.60;;
1569;SDS011;778;50.120;8.698;2024-03-08T15:24:03;15.73;;;12.47;;
1569;SDS011;778;50.120;8.698;2024-03-08T15:26:36;16.67;;;11.33;;
1569;SDS011;778;50.120;8.698;2024-03-08T15:29:07;14.50;;;13.00;;